Time;durP1;ratioP1;P1;durP2;ratioP2;P2;SDS_P1;SDS_P2;PMS_P1;PMS_P2;Temp;Humidity;BMP_temperature;BMP_pressure;BME280_temperature;BME280_humidity;BME280_pressure;Samples;Min_cycle;Max_cycle;Signal;HPM_P1;HPM_P2
2021/10/10 00:01:08;;;;;;;22.57;20.27;;;5.60;99.90;;;;;;4904477;29;20296;-76
2021/10/10 00:03:34;;;;;;;22.10;19.80;;;5.60;99.90;;;;;;4902655;29;20205;-76
2021/10/10 00:06:03;;;;;;;22.10;19.90;;;5.60;99.90;;;;;;4903621;29;20225;-76
2021/10/10 00:08:29;;;;;;;20.93;18.97;;;5.60;99.90;;;;;;4904302;29;20674;-76
2021/10/10 00:10:56;;;;;;;22.77;20.33;;;5.50;99.90;;;;;;4905350;29;20312;-77
2021/10/10 00:13:23;;;;;;;23.57;20.73;;;5.50;99.90;;;;;;4905185;29;20209;-76
2021/10/10 00:15:50;;;;;;;22.93;20.43;;;5.50;99.90;;;;;;4903409;29;20205;-76
2021/10/10 00:18:17;;;;;;;24.50;21.97;;;5.40;99.90;;;;;;4907576;29;20677;-76
2021/10/10 00:20:43;;;;;;;22.67;20.40;;;5.30;99.90;;;;;;4904161;29;20288;-76
2021/10/10 00:23:12;;;;;;;22.40;20.10;;;5.30;99.90;;;;;;4905852;29;20196;-76
2021/10/10 00:25:39;;;;;;;22.37;20.27;;;5.30;99.90;;;;;;4907485;29;20228;-76
2021/10/10 00:28:05;;;;;;;22.70;20.50;;;5.20;99.90;;;;;;4905392;29;20746;-76
2021/10/10 00:30:33;;;;;;;22.20;19.93;;;5.20;99.90;;;;;;4906308;29;20228;-76
2021/10/10 00:33:00;;;;;;;22.53;20.20;;;5.20;99.90;;;;;;4905665;29;20257;-76
2021/10/10 00:35:27;;;;;;;22.10;19.90;;;5.20;99.90;;;;;;4909711;29;20212;-77
2021/10/10 00:37:54;;;;;;;22.00;19.87;;;5.20;99.90;;;;;;4903259;29;20416;-76
2021/10/10 00:40:22;;;;;;;23.33;21.13;;;5.20;99.90;;;;;;4904456;29;20217;-76
2021/10/10 00:42:49;;;;;;;21.90;19.80;;;5.00;99.90;;;;;;4907723;29;20216;-77
2021/10/10 00:45:16;;;;;;;21.87;19.77;;;5.10;99.90;;;;;;4905463;29;20220;-76
2021/10/10 00:47:43;;;;;;;23.07;20.93;;;5.00;99.90;;;;;;4905368;29;20212;-76
2021/10/10 00:50:11;;;;;;;24.23;21.80;;;5.00;99.90;;;;;;4905112;29;20265;-76
2021/10/10 00:52:41;;;;;;;26.00;21.30;;;5.00;99.90;;;;;;4909246;29;20215;-76
2021/10/10 00:55:09;;;;;;;23.80;21.40;;;5.00;99.90;;;;;;4907812;29;20219;-76
2021/10/10 00:57:41;;;;;;;23.87;21.57;;;4.90;99.90;;;;;;4902954;29;20697;-76
2021/10/10 01:00:09;;;;;;;23.03;20.83;;;4.90;99.90;;;;;;4904219;29;20589;-76
2021/10/10 01:02:36;;;;;;;22.20;20.00;;;4.90;99.90;;;;;;4907164;29;20205;-76
2021/10/10 01:05:04;;;;;;;22.00;19.80;;;4.90;99.90;;;;;;4906326;29;20697;-76
2021/10/10 01:07:30;;;;;;;21.30;19.30;;;4.80;99.90;;;;;;4905378;29;20744;-76
2021/10/10 01:09:58;;;;;;;22.43;20.23;;;4.80;99.90;;;;;;4904750;29;20668;-76
2021/10/10 01:12:26;;;;;;;23.17;20.87;;;4.80;99.90;;;;;;4908975;29;20283;-77
2021/10/10 01:14:55;;;;;;;24.27;21.80;;;4.80;99.90;;;;;;4905027;29;20192;-76
2021/10/10 01:17:24;;;;;;;22.97;20.77;;;4.80;99.90;;;;;;4904587;29;20257;-76
2021/10/10 01:19:52;;;;;;;23.03;20.87;;;4.80;99.90;;;;;;4907393;29;20239;-76
2021/10/10 01:22:20;;;;;;;23.53;21.40;;;4.80;99.90;;;;;;4906141;29;20211;-76
2021/10/10 01:24:48;;;;;;;23.90;20.73;;;4.70;99.90;;;;;;4906340;29;20208;-77
2021/10/10 01:27:15;;;;;;;22.77;20.50;;;4.70;99.90;;;;;;4904032;29;20269;-76
2021/10/10 01:29:42;;;;;;;21.30;19.20;;;4.70;99.90;;;;;;4904551;29;20197;-76
2021/10/10 01:32:09;;;;;;;21.57;19.47;;;4.70;99.90;;;;;;4906567;29;20208;-76
2021/10/10 01:34:36;;;;;;;21.37;19.27;;;4.60;99.90;;;;;;4907373;29;20269;-76
2021/10/10 01:37:03;;;;;;;21.67;19.47;;;4.60;99.90;;;;;;4906631;29;20674;-75
2021/10/10 01:39:31;;;;;;;20.87;18.83;;;4.60;99.90;;;;;;4906379;29;20597;-76
2021/10/10 01:41:58;;;;;;;21.47;19.47;;;4.60;99.90;;;;;;4904103;29;20200;-76
2021/10/10 01:44:24;;;;;;;20.57;18.67;;;4.60;99.90;;;;;;4902572;29;20193;-76
2021/10/10 01:46:51;;;;;;;21.97;19.87;;;4.60;99.90;;;;;;4905832;29;20276;-76
2021/10/10 01:49:18;;;;;;;21.70;19.50;;;4.60;99.90;;;;;;4906092;29;20778;-76
2021/10/10 01:51:45;;;;;;;22.20;19.93;;;4.70;99.90;;;;;;4907193;29;20769;-76
2021/10/10 01:54:11;;;;;;;22.17;19.93;;;4.60;99.90;;;;;;4904386;29;20256;-76
2021/10/10 01:56:40;;;;;;;23.33;20.87;;;4.60;99.90;;;;;;4909072;29;20200;-76
2021/10/10 01:59:06;;;;;;;23.07;20.87;;;4.60;99.90;;;;;;4905129;29;20279;-76
2021/10/10 02:01:33;;;;;;;23.57;21.30;;;4.50;99.90;;;;;;4902083;29;20231;-76
2021/10/10 02:04:01;;;;;;;23.03;20.67;;;4.50;99.90;;;;;;4905117;29;20189;-76
2021/10/10 02:06:28;;;;;;;22.57;20.20;;;4.40;99.90;;;;;;4904266;29;20232;-77
2021/10/10 02:08:55;;;;;;;23.60;20.77;;;4.30;99.90;;;;;;4903785;29;20453;-76
2021/10/10 02:11:21;;;;;;;21.60;19.60;;;4.30;99.90;;;;;;4903489;29;20886;-76
2021/10/10 02:13:49;;;;;;;22.50;20.20;;;4.30;99.90;;;;;;4904984;29;20729;-76
2021/10/10 02:16:16;;;;;;;23.13;20.50;;;4.30;99.90;;;;;;4906209;29;20263;-76
2021/10/10 02:18:43;;;;;;;22.53;20.43;;;4.20;99.90;;;;;;4902756;29;20263;-76
2021/10/10 02:21:10;;;;;;;23.00;20.77;;;4.20;99.90;;;;;;4902453;29;20479;-76
2021/10/10 02:23:37;;;;;;;21.97;19.77;;;4.20;99.90;;;;;;4906451;29;20236;-76
2021/10/10 02:26:04;;;;;;;22.13;19.93;;;4.10;99.90;;;;;;4903628;29;20648;-76
2021/10/10 02:28:30;;;;;;;23.03;20.60;;;4.10;99.90;;;;;;4905611;29;20725;-76
2021/10/10 02:30:58;;;;;;;22.10;19.87;;;4.10;99.90;;;;;;4904753;29;20912;-76
2021/10/10 02:33:25;;;;;;;21.83;19.70;;;4.10;99.90;;;;;;4912859;29;20265;-78
2021/10/10 02:35:52;;;;;;;21.63;19.67;;;4.10;99.90;;;;;;4915572;29;20460;-76
2021/10/10 02:38:19;;;;;;;22.97;20.53;;;4.10;99.90;;;;;;4915182;29;20673;-77
2021/10/10 02:40:46;;;;;;;22.73;20.37;;;4.10;99.90;;;;;;4913854;29;20555;-76
2021/10/10 02:43:12;;;;;;;23.17;20.87;;;4.10;99.90;;;;;;4905567;29;20207;-76
2021/10/10 02:45:39;;;;;;;22.17;20.10;;;4.10;99.90;;;;;;4905830;29;20279;-76
2021/10/10 02:48:07;;;;;;;22.90;20.60;;;4.00;99.90;;;;;;4907578;29;20629;-76
2021/10/10 02:50:35;;;;;;;22.57;20.37;;;4.00;99.90;;;;;;4905286;29;20478;-76
2021/10/10 02:53:03;;;;;;;21.67;19.43;;;4.00;99.90;;;;;;4906369;29;20456;-77
2021/10/10 02:55:30;;;;;;;22.10;19.97;;;4.10;99.90;;;;;;4901304;29;20453;-77
2021/10/10 02:57:59;;;;;;;21.33;19.23;;;4.10;99.90;;;;;;4888516;29;20208;-77
2021/10/10 03:00:26;;;;;;;20.90;19.00;;;4.00;99.90;;;;;;4900385;29;20984;-76
2021/10/10 03:02:52;;;;;;;23.07;20.17;;;4.00;99.90;;;;;;4908202;29;21250;-76
2021/10/10 03:05:21;;;;;;;21.43;19.37;;;4.00;99.90;;;;;;4889418;29;20524;-76
2021/10/10 03:07:47;;;;;;;20.87;18.90;;;4.00;99.90;;;;;;4889423;29;20464;-75
2021/10/10 03:10:14;;;;;;;21.83;19.83;;;3.90;99.90;;;;;;4899606;29;20737;-76
2021/10/10 03:12:41;;;;;;;22.43;20.23;;;3.90;99.90;;;;;;4897865;29;20658;-76
2021/10/10 03:15:08;;;;;;;21.23;19.13;;;3.90;99.90;;;;;;4897796;29;20512;-76
2021/10/10 03:17:35;;;;;;;21.80;19.67;;;3.90;99.90;;;;;;4899954;29;20200;-76
2021/10/10 03:20:02;;;;;;;22.07;20.03;;;3.90;99.90;;;;;;4900667;29;20986;-77
2021/10/10 03:22:30;;;;;;;21.37;19.27;;;3.80;99.90;;;;;;4898657;29;20449;-76
2021/10/10 03:24:57;;;;;;;20.97;19.07;;;3.80;99.90;;;;;;4901563;29;21016;-76
2021/10/10 03:27:26;;;;;;;20.93;19.03;;;3.80;99.90;;;;;;4899946;29;20493;-76
2021/10/10 03:29:53;;;;;;;21.57;19.47;;;3.70;99.90;;;;;;4905604;29;20571;-76
2021/10/10 03:32:20;;;;;;;21.47;19.37;;;3.60;99.90;;;;;;4900393;29;20547;-76
2021/10/10 03:34:47;;;;;;;22.13;19.93;;;3.60;99.90;;;;;;4905612;29;20268;-76
2021/10/10 03:37:14;;;;;;;22.07;20.03;;;3.60;99.90;;;;;;4901029;29;20471;-76
2021/10/10 03:39:42;;;;;;;22.23;20.03;;;3.60;99.90;;;;;;4909610;29;20854;-76
2021/10/10 03:42:09;;;;;;;20.87;18.87;;;3.60;99.90;;;;;;4901730;29;20494;-76
2021/10/10 03:44:36;;;;;;;21.47;19.27;;;3.60;99.90;;;;;;4904929;29;20460;-76
2021/10/10 03:47:03;;;;;;;21.73;19.67;;;3.50;99.90;;;;;;4898646;29;20536;-76
2021/10/10 03:49:30;;;;;;;20.47;18.57;;;3.50;99.90;;;;;;4904854;29;20461;-75
2021/10/10 03:51:57;;;;;;;21.80;19.53;;;3.60;99.90;;;;;;4910355;29;20814;-76
2021/10/10 03:57:10;;;;;;;20.57;18.47;;;3.50;99.90;;;;;;4900358;29;20451;-75
2021/10/10 03:59:37;;;;;;;19.50;17.47;;;3.40;99.90;;;;;;4905475;29;20819;-76
2021/10/10 04:02:06;;;;;;;21.43;19.13;;;3.30;99.90;;;;;;4910546;29;20449;-76
2021/10/10 04:04:34;;;;;;;20.40;18.43;;;3.30;99.90;;;;;;4907091;29;20460;-75
2021/10/10 04:07:01;;;;;;;21.03;19.10;;;3.30;99.90;;;;;;4910208;29;20323;-76
2021/10/10 04:09:28;;;;;;;22.27;19.87;;;3.30;99.90;;;;;;4907662;29;20441;-75
2021/10/10 04:11:55;;;;;;;22.27;20.03;;;3.30;99.90;;;;;;4904492;29;20499;-76
2021/10/10 04:14:23;;;;;;;22.67;20.47;;;3.20;99.90;;;;;;4909090;29;20978;-76
2021/10/10 04:16:50;;;;;;;22.20;20.00;;;3.20;99.90;;;;;;4900963;29;20526;-76
2021/10/10 04:19:17;;;;;;;22.50;20.20;;;3.20;99.90;;;;;;4908330;29;20456;-76
2021/10/10 04:21:43;;;;;;;22.20;20.13;;;3.20;99.90;;;;;;4895494;29;20532;-76
2021/10/10 04:24:10;;;;;;;23.90;21.40;;;3.20;99.90;;;;;;4906592;29;20477;-76
2021/10/10 04:26:37;;;;;;;23.03;20.87;;;3.20;99.90;;;;;;4905649;29;20515;-76
2021/10/10 04:29:04;;;;;;;24.07;21.67;;;3.20;99.90;;;;;;4905691;29;20447;-76
2021/10/10 04:31:32;;;;;;;23.87;21.33;;;3.30;99.90;;;;;;4910837;29;20532;-76
2021/10/10 04:33:59;;;;;;;23.50;21.10;;;3.30;99.90;;;;;;4908900;29;20554;-76
2021/10/10 04:36:25;;;;;;;23.90;21.17;;;3.30;99.90;;;;;;4909878;29;20799;-76
2021/10/10 04:38:52;;;;;;;23.87;21.60;;;3.30;99.90;;;;;;4904493;29;20546;-76
2021/10/10 04:41:19;;;;;;;23.50;21.30;;;3.30;99.90;;;;;;4907369;29;20484;-76
2021/10/10 04:43:46;;;;;;;22.80;20.60;;;3.30;99.90;;;;;;4906474;29;20517;-76
2021/10/10 04:46:13;;;;;;;23.70;21.43;;;3.40;99.90;;;;;;4906289;29;20558;-76
2021/10/10 04:48:41;;;;;;;22.57;20.37;;;3.40;99.90;;;;;;4903043;29;20559;-75
2021/10/10 04:51:08;;;;;;;22.27;20.20;;;3.40;99.90;;;;;;4904220;29;20884;-77
2021/10/10 04:53:34;;;;;;;23.87;21.37;;;3.40;99.90;;;;;;4907176;29;20499;-76
2021/10/10 04:56:01;;;;;;;23.33;21.00;;;3.30;99.90;;;;;;4905371;29;20433;-80
2021/10/10 04:58:28;;;;;;;22.17;20.17;;;3.40;99.90;;;;;;4899377;29;21030;-76
2021/10/10 05:00:55;;;;;;;24.17;21.73;;;3.30;99.90;;;;;;4901172;29;20231;-76
2021/10/10 05:03:21;;;;;;;22.57;20.23;;;3.30;99.90;;;;;;4901264;29;20840;-76
2021/10/10 05:05:51;;;;;;;23.63;21.30;;;3.30;99.90;;;;;;4908423;29;20505;-75
2021/10/10 05:08:18;;;;;;;23.77;21.27;;;3.30;99.90;;;;;;4906655;29;20571;-76
2021/10/10 05:10:45;;;;;;;22.60;20.40;;;3.30;99.90;;;;;;4904556;29;20539;-76
2021/10/10 05:13:12;;;;;;;22.17;19.97;;;3.30;99.90;;;;;;4908259;29;21052;-76
2021/10/10 05:15:38;;;;;;;21.90;19.60;;;3.30;99.90;;;;;;4904500;29;20447;-77
2021/10/10 05:18:05;;;;;;;22.57;20.27;;;3.30;99.90;;;;;;4907979;29;21024;-76
2021/10/10 05:20:32;;;;;;;22.60;20.40;;;3.20;99.90;;;;;;4910045;29;20460;-75
2021/10/10 05:23:00;;;;;;;23.77;21.27;;;3.20;99.90;;;;;;4908582;29;20448;-76
2021/10/10 05:25:27;;;;;;;22.73;20.43;;;3.20;99.90;;;;;;4907586;29;20962;-76
2021/10/10 05:27:54;;;;;;;22.47;19.83;;;3.20;99.90;;;;;;4908924;29;20861;-76
2021/10/10 05:30:21;;;;;;;21.30;19.10;;;3.10;99.90;;;;;;4906769;29;20535;-76
2021/10/10 05:32:48;;;;;;;20.47;18.57;;;3.10;99.90;;;;;;4898800;29;20456;-76
2021/10/10 05:35:16;;;;;;;19.70;17.80;;;3.00;99.90;;;;;;4897618;29;20453;-76
2021/10/10 05:37:43;;;;;;;21.53;19.03;;;3.00;99.90;;;;;;4911712;29;21026;-76
2021/10/10 05:40:12;;;;;;;21.77;19.57;;;3.00;99.90;;;;;;4904294;29;20472;-76
2021/10/10 05:42:39;;;;;;;22.33;20.00;;;3.00;99.90;;;;;;4904341;29;20452;-76
2021/10/10 05:45:06;;;;;;;22.90;20.63;;;3.00;99.90;;;;;;4909323;29;20459;-76
2021/10/10 05:47:33;;;;;;;23.23;20.93;;;3.00;99.90;;;;;;4904478;29;20477;-75
2021/10/10 05:50:00;;;;;;;23.13;20.73;;;3.00;99.90;;;;;;4906564;29;20902;-75
2021/10/10 05:52:28;;;;;;;22.87;20.23;;;3.10;99.90;;;;;;4912253;29;20531;-76
2021/10/10 05:54:55;;;;;;;21.07;18.97;;;3.10;99.90;;;;;;4909147;29;20448;-76
2021/10/10 05:57:27;;;;;;;21.80;19.63;;;3.00;99.90;;;;;;4900242;29;20461;-76
2021/10/10 06:00:01;;;;;;;22.97;20.67;;;3.00;99.90;;;;;;4902527;29;21012;-76
2021/10/10 06:02:28;;;;;;;23.37;20.90;;;3.10;99.90;;;;;;4903499;29;21092;-76
2021/10/10 06:04:55;;;;;;;22.67;20.40;;;3.10;99.90;;;;;;4904251;29;20456;-77
2021/10/10 06:07:22;;;;;;;22.83;20.50;;;3.10;99.90;;;;;;4910037;29;20546;-77
2021/10/10 06:10:01;;;;;;;22.73;20.43;;;3.10;99.90;;;;;;4899546;29;20524;-76
2021/10/10 06:12:30;;;;;;;23.23;20.90;;;3.10;99.90;;;;;;4909832;29;20447;-77
2021/10/10 06:14:58;;;;;;;22.33;20.13;;;3.20;99.90;;;;;;4906656;29;20448;-77
2021/10/10 06:17:25;;;;;;;26.13;22.33;;;3.30;99.90;;;;;;4905593;29;20460;-76
2021/10/10 06:19:55;;;;;;;22.93;20.37;;;3.40;99.90;;;;;;4898938;29;20468;-77
2021/10/10 06:22:22;;;;;;;22.20;19.97;;;3.60;99.90;;;;;;4901474;29;20499;-76
2021/10/10 06:24:49;;;;;;;22.60;20.37;;;3.70;99.90;;;;;;4902883;29;20207;-76
2021/10/10 06:27:17;;;;;;;22.20;20.10;;;3.90;99.90;;;;;;4902040;29;20544;-76
2021/10/10 06:29:45;;;;;;;20.90;18.97;;;4.00;99.90;;;;;;4907431;29;20200;-76
2021/10/10 06:32:12;;;;;;;20.20;18.40;;;4.10;99.90;;;;;;4903399;29;20257;-77
2021/10/10 06:34:40;;;;;;;18.90;17.17;;;4.20;99.90;;;;;;4910485;29;20257;-77
2021/10/10 06:37:07;;;;;;;20.83;18.93;;;4.30;99.90;;;;;;4900830;29;20666;-76
2021/10/10 06:39:35;;;;;;;20.83;19.03;;;4.40;99.90;;;;;;4893620;29;20265;-77
2021/10/10 06:42:02;;;;;;;20.97;19.17;;;4.50;99.90;;;;;;4905649;29;20209;-77
2021/10/10 06:44:31;;;;;;;20.57;18.83;;;4.70;99.90;;;;;;4905405;29;20212;-78
2021/10/10 06:46:59;;;;;;;20.93;19.03;;;4.80;99.90;;;;;;4906770;29;20223;-79
2021/10/10 06:49:26;;;;;;;20.13;18.30;;;5.00;99.90;;;;;;4909430;29;20748;-77
2021/10/10 06:51:53;;;;;;;19.53;17.83;;;5.20;99.90;;;;;;4905268;29;20271;-80
2021/10/10 06:54:20;;;;;;;19.50;17.90;;;5.40;99.90;;;;;;4906321;29;20212;-77
2021/10/10 06:56:47;;;;;;;20.03;18.23;;;5.70;99.90;;;;;;4899828;29;20229;-77
2021/10/10 06:59:16;;;;;;;18.57;16.97;;;6.00;99.90;;;;;;4892832;29;20200;-77
2021/10/10 07:01:47;;;;;;;17.37;15.87;;;6.20;99.90;;;;;;4893678;29;20224;-76
2021/10/10 07:04:15;;;;;;;13.27;11.93;;;6.30;99.90;;;;;;4893077;29;20197;-77
2021/10/10 07:06:42;;;;;;;12.00;9.40;;;6.40;99.90;;;;;;4890986;29;20211;-76
2021/10/10 07:09:11;;;;;;;12.93;10.53;;;6.40;99.90;;;;;;4895134;29;20670;-76
2021/10/10 07:11:38;;;;;;;12.03;9.70;;;6.40;99.90;;;;;;4896172;29;20264;-76
2021/10/10 07:14:05;;;;;;;15.63;14.03;;;6.40;99.90;;;;;;4897902;29;20208;-76
2021/10/10 07:16:35;;;;;;;14.27;10.80;;;6.40;99.90;;;;;;4896370;29;20208;-77
2021/10/10 07:19:04;;;;;;;14.00;11.00;;;6.60;99.90;;;;;;4896446;29;20246;-77
2021/10/10 07:21:55;;;;;;;18.43;16.77;;;6.90;99.90;;;;;;4893791;29;20219;-77
2021/10/10 07:27:07;;;;;;;16.00;14.30;;;7.90;99.90;;;;;;4899878;29;20286;-77
2021/10/10 07:29:34;;;;;;;14.87;13.37;;;8.30;99.90;;;;;;4909995;29;20226;-77
2021/10/10 07:32:01;;;;;;;18.23;16.33;;;8.80;99.90;;;;;;4909035;29;20267;-77
2021/10/10 07:34:30;;;;;;;20.40;18.47;;;9.30;99.90;;;;;;4900655;29;20252;-75
2021/10/10 07:36:58;;;;;;;14.83;13.33;;;9.70;99.90;;;;;;4905542;29;20283;-75
2021/10/10 07:39:25;;;;;;;14.63;13.03;;;10.10;99.90;;;;;;4906607;29;20236;-75
2021/10/10 07:41:54;;;;;;;13.33;11.60;;;10.60;99.90;;;;;;4907807;29;20235;-75
2021/10/10 07:44:22;;;;;;;14.40;11.60;;;10.80;99.90;;;;;;4909750;29;20208;-75
2021/10/10 07:46:56;;;;;;;16.37;14.67;;;11.10;99.90;;;;;;4905996;29;20223;-75
2021/10/10 07:49:26;;;;;;;16.37;13.23;;;11.30;99.90;;;;;;4902751;29;20212;-77
2021/10/10 07:51:57;;;;;;;14.90;13.10;;;11.50;99.90;;;;;;4898140;29;20254;-78
2021/10/10 07:54:54;;;;;;;;;;;;;;;;;;;;;
2021/10/10 07:57:34;;;;;;;14.67;13.27;;;12.00;99.90;;;;;;4895214;29;20710;-77
2021/10/10 08:00:12;;;;;;;13.30;11.37;;;12.10;99.90;;;;;;4898939;29;20215;-78
2021/10/10 08:02:53;;;;;;;16.80;15.10;;;12.40;99.90;;;;;;4897971;29;20282;-78
2021/10/10 08:05:28;;;;;;;15.97;14.37;;;12.40;99.90;;;;;;4900982;29;20199;-78
2021/10/10 08:08:07;;;;;;;14.47;12.10;;;12.40;99.90;;;;;;4905986;29;20235;-78
2021/10/10 08:10:41;;;;;;;14.07;12.57;;;12.40;99.90;;;;;;4901283;29;20655;-77
2021/10/10 08:13:13;;;;;;;13.73;12.33;;;12.50;99.90;;;;;;4906565;29;20206;-78
2021/10/10 08:15:52;;;;;;;15.00;13.37;;;12.60;99.90;;;;;;4907232;29;20224;-77
2021/10/10 08:18:19;;;;;;;15.33;13.93;;;12.80;99.90;;;;;;4899193;29;20205;-77
2021/10/10 08:20:46;;;;;;;15.40;13.80;;;12.70;99.90;;;;;;4899810;29;20232;-77
2021/10/10 08:23:15;;;;;;;16.57;15.07;;;12.40;99.90;;;;;;4903232;29;20593;-77
2021/10/10 08:25:53;;;;;;;16.23;14.83;;;12.80;99.90;;;;;;4910441;29;20212;-77
2021/10/10 08:28:20;;;;;;;18.63;16.73;;;13.00;99.90;;;;;;4907088;29;20697;-78
2021/10/10 08:30:50;;;;;;;16.90;15.23;;;13.20;99.90;;;;;;4908310;29;20234;-77
2021/10/10 08:33:19;;;;;;;17.37;15.87;;;13.30;99.90;;;;;;4898158;29;20204;-77
2021/10/10 08:35:46;;;;;;;16.57;15.07;;;13.40;99.90;;;;;;4905882;29;20208;-77
2021/10/10 08:38:14;;;;;;;18.10;16.60;;;13.40;99.90;;;;;;4900554;29;20201;-77
2021/10/10 08:40:41;;;;;;;17.07;15.53;;;13.50;99.90;;;;;;4908769;29;20224;-79
2021/10/10 08:43:12;;;;;;;17.53;16.00;;;13.80;99.90;;;;;;4899566;29;20206;-77
2021/10/10 08:45:41;;;;;;;17.60;15.10;;;13.90;99.90;;;;;;4910704;29;20668;-77
2021/10/10 08:48:08;;;;;;;16.90;15.50;;;14.00;99.90;;;;;;4900499;29;20268;-77
2021/10/10 08:50:35;;;;;;;19.20;17.40;;;13.90;99.90;;;;;;4909602;29;20228;-77
2021/10/10 08:53:02;;;;;;;22.07;17.63;;;13.90;99.90;;;;;;4910086;29;20208;-77
2021/10/10 08:55:32;;;;;;;19.67;17.97;;;13.70;99.90;;;;;;4907455;29;20205;-77
2021/10/10 08:57:59;;;;;;;19.13;17.33;;;13.60;99.90;;;;;;4909503;29;20559;-77
2021/10/10 09:00:30;;;;;;;19.57;17.87;;;13.90;99.90;;;;;;4898867;29;20673;-76
2021/10/10 09:02:58;;;;;;;19.50;17.60;;;13.90;99.90;;;;;;4909956;29;20209;-77
2021/10/10 09:05:26;;;;;;;18.73;17.13;;;14.00;99.90;;;;;;4907100;29;20720;-77
2021/10/10 09:07:54;;;;;;;18.77;16.90;;;14.20;99.90;;;;;;4908866;29;20255;-77
2021/10/10 09:10:25;;;;;;;18.67;16.97;;;14.20;99.90;;;;;;4906552;29;20228;-78
2021/10/10 09:12:54;;;;;;;19.67;17.67;;;14.40;99.90;;;;;;4904443;29;20210;-77
2021/10/10 09:15:22;;;;;;;19.27;17.57;;;14.50;99.90;;;;;;4906365;29;20198;-78
2021/10/10 09:17:56;;;;;;;19.47;17.70;;;14.60;99.90;;;;;;4901466;29;20228;-78
2021/10/10 09:20:32;;;;;;;20.63;18.50;;;14.50;99.90;;;;;;4905104;29;20277;-77
2021/10/10 09:23:02;;;;;;;20.17;18.03;;;14.40;99.90;;;;;;4902860;29;20269;-77
2021/10/10 09:25:31;;;;;;;20.33;18.47;;;14.40;99.90;;;;;;4898736;29;20207;-78
2021/10/10 09:28:19;;;;;;;18.93;17.23;;;14.30;99.90;;;;;;4888021;29;20216;-79
2021/10/10 09:30:48;;;;;;;21.17;18.47;;;14.30;99.90;;;;;;4905119;29;20224;-78
2021/10/10 09:33:40;;;;;;;20.57;18.67;;;14.30;99.90;;;;;;4901824;29;20200;-78
2021/10/10 09:36:15;;;;;;;19.10;17.20;;;13.80;99.90;;;;;;4890507;29;20977;-77
2021/10/10 09:39:02;;;;;;;19.83;17.93;;;13.60;99.90;;;;;;4898504;29;20212;-78
2021/10/10 09:41:35;;;;;;;18.43;16.83;;;13.40;99.90;;;;;;4898495;29;20275;-77
2021/10/10 09:44:12;;;;;;;17.83;16.13;;;13.20;99.90;;;;;;4898067;29;20632;-78
2021/10/10 09:46:41;;;;;;;19.90;18.00;;;13.00;99.90;;;;;;4901733;29;20204;-77
2021/10/10 09:49:24;;;;;;;18.43;16.67;;;13.00;99.90;;;;;;4896695;29;20749;-77
2021/10/10 09:51:55;;;;;;;20.87;15.17;;;12.80;99.90;;;;;;4902478;29;20221;-76
2021/10/10 09:54:23;;;;;;;14.80;13.23;;;12.60;99.90;;;;;;4897506;29;20204;-78
2021/10/10 09:57:20;;;;;;;14.87;12.87;;;12.60;99.90;;;;;;4898212;29;20206;-78
2021/10/10 09:59:53;;;;;;;17.57;15.67;;;12.70;99.90;;;;;;4895687;29;20805;-77
2021/10/10 10:02:37;;;;;;;18.63;16.73;;;12.70;99.90;;;;;;4900645;29;20545;-78
2021/10/10 10:05:04;;;;;;;15.87;14.20;;;12.70;99.90;;;;;;4900688;29;20200;-79
2021/10/10 10:07:31;;;;;;;17.67;15.53;;;12.60;99.90;;;;;;4890477;29;20207;-77
2021/10/10 10:10:00;;;;;;;22.73;18.17;;;12.60;99.90;;;;;;4902622;29;20247;-79
2021/10/10 10:12:27;;;;;;;18.83;16.93;;;12.30;99.90;;;;;;4907265;29;20257;-78
2021/10/10 10:14:59;;;;;;;17.10;15.57;;;12.40;99.90;;;;;;4904111;29;20238;-78
2021/10/10 10:17:27;;;;;;;19.33;17.30;;;12.40;99.90;;;;;;4902516;29;20211;-77
2021/10/10 10:19:57;;;;;;;19.53;17.40;;;12.30;99.90;;;;;;4902313;29;20268;-79
2021/10/10 10:22:26;;;;;;;19.20;16.83;;;12.20;99.90;;;;;;4906885;29;20194;-79
2021/10/10 10:24:53;;;;;;;17.67;16.07;;;12.40;99.90;;;;;;4901036;29;20291;-79
2021/10/10 10:27:21;;;;;;;18.37;16.73;;;12.40;99.90;;;;;;4897883;29;20702;-78
2021/10/10 10:29:51;;;;;;;18.87;16.97;;;12.20;99.90;;;;;;4915048;29;20231;-79
2021/10/10 10:32:20;;;;;;;19.40;17.60;;;12.20;99.90;;;;;;4891248;29;20231;-78
2021/10/10 10:34:58;;;;;;;18.70;16.60;;;12.00;99.90;;;;;;4893248;29;20216;-78
2021/10/10 10:37:53;;;;;;;18.90;17.00;;;12.00;99.90;;;;;;4901162;29;20206;-79
2021/10/10 10:40:34;;;;;;;18.80;17.10;;;12.10;99.90;;;;;;4891507;29;20279;-78
2021/10/10 10:43:03;;;;;;;21.13;17.27;;;12.00;99.90;;;;;;4898200;29;20217;-78
2021/10/10 10:45:33;;;;;;;17.47;15.77;;;12.00;99.90;;;;;;4899254;29;20203;-78
2021/10/10 10:48:08;;;;;;;17.27;15.57;;;12.10;99.90;;;;;;4900896;29;20205;-78
2021/10/10 10:50:39;;;;;;;17.60;15.73;;;12.10;99.90;;;;;;4885765;29;20309;-78
2021/10/10 10:53:07;;;;;;;18.53;16.43;;;12.20;99.90;;;;;;4897381;29;20294;-77
2021/10/10 10:55:36;;;;;;;18.47;16.67;;;12.30;99.90;;;;;;4889620;29;20196;-78
2021/10/10 10:58:17;;;;;;;18.73;16.93;;;12.20;99.90;;;;;;4895588;29;20200;-78
2021/10/10 11:00:46;;;;;;;17.83;16.03;;;12.20;99.90;;;;;;4897131;29;20589;-77
2021/10/10 11:03:17;;;;;;;17.00;15.30;;;12.10;99.90;;;;;;4907913;29;20554;-77
2021/10/10 11:05:50;;;;;;;19.63;16.67;;;12.20;99.90;;;;;;4892560;29;20240;-79
2021/10/10 11:08:38;;;;;;;20.27;17.93;;;12.20;99.90;;;;;;4888196;29;20715;-77
2021/10/10 11:11:13;;;;;;;17.20;15.70;;;12.20;99.90;;;;;;4889437;29;20325;-78
2021/10/10 11:13:41;;;;;;;16.80;15.20;;;12.30;99.90;;;;;;4890483;29;20253;-78
2021/10/10 11:16:09;;;;;;;15.93;14.43;;;12.50;99.90;;;;;;4895418;29;20577;-77
2021/10/10 11:18:43;;;;;;;19.30;17.40;;;12.60;99.90;;;;;;4895027;29;20239;-79
2021/10/10 11:21:11;;;;;;;16.57;14.97;;;12.50;99.90;;;;;;4886614;29;20291;-78
2021/10/10 11:23:38;;;;;;;18.40;16.33;;;12.50;99.90;;;;;;4891196;29;20214;-78
2021/10/10 11:26:06;;;;;;;17.80;16.00;;;12.60;99.90;;;;;;4896229;29;20246;-78
2021/10/10 11:28:39;;;;;;;18.13;16.23;;;12.60;99.90;;;;;;4887264;29;20271;-78
2021/10/10 11:31:11;;;;;;;18.97;16.33;;;12.70;99.90;;;;;;4897164;29;20362;-77
2021/10/10 11:33:40;;;;;;;17.17;14.90;;;12.80;99.90;;;;;;4903398;29;20229;-77
2021/10/10 11:36:08;;;;;;;19.03;17.03;;;12.80;99.90;;;;;;4906448;29;20680;-77
2021/10/10 11:38:52;;;;;;;18.63;16.73;;;12.80;99.90;;;;;;4903035;29;20232;-77
2021/10/10 11:41:19;;;;;;;18.43;16.03;;;12.90;99.90;;;;;;4906630;29;20324;-77
2021/10/10 11:44:04;;;;;;;18.77;16.80;;;12.90;99.90;;;;;;4907285;29;20255;-77
2021/10/10 11:46:42;;;;;;;18.63;16.83;;;12.90;99.90;;;;;;4905272;29;20687;-78
2021/10/10 11:49:30;;;;;;;19.50;16.60;;;12.80;99.90;;;;;;4904895;29;20219;-78
2021/10/10 11:52:05;;;;;;;18.60;16.80;;;12.80;99.90;;;;;;4900122;29;20223;-78
2021/10/10 11:54:36;;;;;;;20.03;17.70;;;12.70;99.90;;;;;;4904871;29;20208;-78
2021/10/10 11:57:04;;;;;;;19.37;17.33;;;12.70;99.90;;;;;;4903063;29;20215;-77
2021/10/10 11:59:31;;;;;;;17.40;15.70;;;12.80;99.90;;;;;;4902859;29;20204;-76
2021/10/10 12:01:57;;;;;;;17.90;16.10;;;12.90;99.90;;;;;;4903927;29;20670;-78
2021/10/10 12:04:26;;;;;;;17.80;15.93;;;13.00;99.90;;;;;;4904366;29;20580;-78
2021/10/10 12:06:53;;;;;;;21.03;18.10;;;13.00;99.90;;;;;;4886017;29;20636;-79
2021/10/10 12:09:21;;;;;;;18.37;16.47;;;13.00;99.90;;;;;;4899213;29;20228;-80
2021/10/10 12:12:05;;;;;;;17.20;15.40;;;13.00;99.90;;;;;;4913504;29;20756;-80
2021/10/10 12:14:46;;;;;;;19.00;16.07;;;13.00;99.90;;;;;;4906339;29;20201;-80
2021/10/10 12:17:32;;;;;;;17.20;15.53;;;13.00;99.90;;;;;;4909797;29;20267;-78
2021/10/10 12:20:05;;;;;;;18.47;16.73;;;13.00;99.90;;;;;;4896202;29;20250;-79
2021/10/10 12:22:32;;;;;;;17.77;15.93;;;13.10;99.90;;;;;;4895261;29;20241;-79
2021/10/10 12:24:59;;;;;;;16.03;14.43;;;13.10;99.90;;;;;;4898258;29;20209;-79
2021/10/10 12:27:28;;;;;;;18.03;16.13;;;13.20;99.90;;;;;;4901536;29;20205;-80
2021/10/10 12:30:00;;;;;;;14.80;13.20;;;13.20;99.90;;;;;;4890375;29;20252;-78
2021/10/10 12:32:31;;;;;;;20.23;18.03;;;13.30;99.90;;;;;;4892584;29;20738;-78
2021/10/10 12:35:15;;;;;;;18.77;16.90;;;13.30;99.90;;;;;;4895857;29;20263;-79
2021/10/10 12:37:50;;;;;;;18.07;16.17;;;13.40;99.90;;;;;;4896278;29;20677;-79
2021/10/10 12:40:28;;;;;;;17.00;15.27;;;13.40;99.90;;;;;;4897155;29;20232;-78
2021/10/10 12:42:56;;;;;;;20.90;17.13;;;13.40;99.90;;;;;;4903744;29;20212;-78
2021/10/10 12:45:28;;;;;;;20.93;17.50;;;13.50;99.90;;;;;;4893220;29;20208;-79
2021/10/10 12:48:05;;;;;;;17.57;15.80;;;13.50;99.90;;;;;;4899316;29;20207;-79
2021/10/10 12:50:47;;;;;;;18.53;15.47;;;13.40;99.90;;;;;;4897148;29;20235;-79